^^
Station Historical Data
Daily Summary for July 10, 2017 Units:  Both    English   Metric
« Previous Day
Next Day »
Daily Weekly Monthly Yearly Custom
  High: Low: Average:
Temperature: 75.4 °F /  24.1 °C 45.0 °F /  7.2 °C 58.6 °F /  14.8 °C
Dew Point: 37.2 °F /  2.9 °C 29.5 °F /  -1.4 °C 33.2 °F /  0.7 °C
Humidity: 61% 22% 41%
Wind Speed: 10.1mph /  16.3km/h - 0.8mph /  1.3km/h
Wind Gust: 13.0mph /  20.9km/h - -
Wind- - West
Pressure: 30.32 in /  1026.6 hPa 30.18 in /  1021.9 hPa -
Precipitation: 0.00 in /  0 mm    
Historical Graphs
 
 
Tabular Data for July 10, 2017
Time Temperature Dew Point Pressure Wind Wind Speed Wind Gust Humidity Rainfall Rate (Hourly) solar Conditions
00:00 48.7 °F /  9.3 °C 31.8 °F /  -0.1 °C 30.31in /  1026.3hPa Calm   2.0mph /  3.2km/h 52% 0.00in /  0mm 0.0 W/m2
00:06 48.6 °F /  9.2 °C 31.8 °F /  -0.1 °C 30.31in /  1026.3hPa Calm   1.0mph /  1.6km/h 52% 0.00in /  0mm 0.0 W/m2
00:12 48.6 °F /  9.2 °C 32.2 °F /  0.1 °C 30.31in /  1026.3hPa Calm     53% 0.00in /  0mm 0.0 W/m2
00:18 48.6 °F /  9.2 °C 31.8 °F /  -0.1 °C 30.31in /  1026.3hPa East 0.9mph /  1.4km/h 2.0mph /  3.2km/h 52% 0.00in /  0mm 0.0 W/m2
00:24 48.4 °F /  9.1 °C 32.0 °F /  0 °C 30.31in /  1026.3hPa Calm   1.0mph /  1.6km/h 53% 0.00in /  0mm 0.0 W/m2
00:30 48.2 °F /  9 °C 31.8 °F /  -0.1 °C 30.31in /  1026.3hPa Calm     53% 0.00in /  0mm 0.0 W/m2
00:36 48.0 °F /  8.9 °C 31.6 °F /  -0.2 °C 30.31in /  1026.3hPa Calm   1.0mph /  1.6km/h 53% 0.00in /  0mm 0.0 W/m2
00:42 48.0 °F /  8.9 °C 31.6 °F /  -0.2 °C 30.31in /  1026.3hPa Calm     53% 0.00in /  0mm 0.0 W/m2
00:48 48.0 °F /  8.9 °C 32.2 °F /  0.1 °C 30.31in /  1026.3hPa Calm     54% 0.00in /  0mm 0.0 W/m2
00:54 48.0 °F /  8.9 °C 32.2 °F /  0.1 °C 30.31in /  1026.3hPa Calm     54% 0.00in /  0mm 0.0 W/m2
01:00 48.0 °F /  8.9 °C 32.2 °F /  0.1 °C 30.31in /  1026.3hPa Calm   1.0mph /  1.6km/h 54% 0.00in /  0mm 0.0 W/m2
01:06 48.0 °F /  8.9 °C 32.2 °F /  0.1 °C 30.30in /  1026hPa Calm     54% 0.00in /  0mm 0.0 W/m2
01:12 48.0 °F /  8.9 °C 32.2 °F /  0.1 °C 30.30in /  1026hPa Calm   1.0mph /  1.6km/h 54% 0.00in /  0mm 0.0 W/m2
01:18 48.0 °F /  8.9 °C 32.2 °F /  0.1 °C 30.30in /  1026hPa Calm   1.0mph /  1.6km/h 54% 0.00in /  0mm 0.0 W/m2
01:24 47.8 °F /  8.8 °C 31.5 °F /  -0.3 °C 30.30in /  1026hPa Calm   1.0mph /  1.6km/h 53% 0.00in /  0mm 0.0 W/m2
01:30 47.8 °F /  8.8 °C 32.0 °F /  0 °C 30.30in /  1026hPa Calm   1.0mph /  1.6km/h 54% 0.00in /  0mm 0.0 W/m2
01:36 47.7 °F /  8.7 °C 31.8 °F /  -0.1 °C 30.30in /  1026hPa NW 0.9mph /  1.4km/h 4.0mph /  6.4km/h 54% 0.00in /  0mm 0.0 W/m2
01:42 47.8 °F /  8.8 °C 32.0 °F /  0 °C 30.29in /  1025.6hPa Calm     54% 0.00in /  0mm 0.0 W/m2
01:48 47.8 °F /  8.8 °C 32.0 °F /  0 °C 30.29in /  1025.6hPa Calm     54% 0.00in /  0mm 0.0 W/m2
01:54 47.7 °F /  8.7 °C 31.8 °F /  -0.1 °C 30.29in /  1025.6hPa Calm   1.0mph /  1.6km/h 54% 0.00in /  0mm 0.0 W/m2
02:00 47.7 °F /  8.7 °C 31.8 °F /  -0.1 °C 30.29in /  1025.6hPa Calm     54% 0.00in /  0mm 0.0 W/m2
02:06 47.7 °F /  8.7 °C 31.8 °F /  -0.1 °C 30.29in /  1025.6hPa Calm     54% 0.00in /  0mm 0.0 W/m2
02:12 47.7 °F /  8.7 °C 31.8 °F /  -0.1 °C 30.29in /  1025.6hPa Calm   3.0mph /  4.8km/h 54% 0.00in /  0mm 0.0 W/m2
02:18 47.7 °F /  8.7 °C 31.8 °F /  -0.1 °C 30.29in /  1025.6hPa Calm     54% 0.00in /  0mm 0.0 W/m2
02:24 47.7 °F /  8.7 °C 31.8 °F /  -0.1 °C 30.29in /  1025.6hPa Calm   3.0mph /  4.8km/h 54% 0.00in /  0mm 0.0 W/m2
02:30 47.5 °F /  8.6 °C 31.6 °F /  -0.2 °C 30.29in /  1025.6hPa Calm   2.0mph /  3.2km/h 54% 0.00in /  0mm 0.0 W/m2
02:36 47.5 °F /  8.6 °C 32.2 °F /  0.1 °C 30.28in /  1025.3hPa Calm   4.0mph /  6.4km/h 55% 0.00in /  0mm 0.0 W/m2
02:42 47.7 °F /  8.7 °C 32.4 °F /  0.2 °C 30.28in /  1025.3hPa Calm   1.0mph /  1.6km/h 55% 0.00in /  0mm 0.0 W/m2
02:48 47.7 °F /  8.7 °C 32.4 °F /  0.2 °C 30.28in /  1025.3hPa Calm     55% 0.00in /  0mm 0.0 W/m2
02:54 47.7 °F /  8.7 °C 32.4 °F /  0.2 °C 30.28in /  1025.3hPa Calm   2.0mph /  3.2km/h 55% 0.00in /  0mm 0.0 W/m2
03:00 47.5 °F /  8.6 °C 32.2 °F /  0.1 °C 30.28in /  1025.3hPa Calm   4.0mph /  6.4km/h 55% 0.00in /  0mm 0.0 W/m2
03:06 47.5 °F /  8.6 °C 32.2 °F /  0.1 °C 30.28in /  1025.3hPa Calm   2.0mph /  3.2km/h 55% 0.00in /  0mm 0.0 W/m2
03:12 47.5 °F /  8.6 °C 32.2 °F /  0.1 °C 30.28in /  1025.3hPa Calm   1.0mph /  1.6km/h 55% 0.00in /  0mm 0.0 W/m2
03:18 47.5 °F /  8.6 °C 32.2 °F /  0.1 °C 30.28in /  1025.3hPa Calm     55% 0.00in /  0mm 0.0 W/m2
03:24 47.7 °F /  8.7 °C 31.8 °F /  -0.1 °C 30.28in /  1025.3hPa ENE 0.9mph /  1.4km/h 3.0mph /  4.8km/h 54% 0.00in /  0mm 0.0 W/m2
03:30 47.8 °F /  8.8 °C 32.0 °F /  0 °C 30.28in /  1025.3hPa Calm     54% 0.00in /  0mm 0.0 W/m2
03:36 47.8 °F /  8.8 °C 32.0 °F /  0 °C 30.28in /  1025.3hPa Calm     54% 0.00in /  0mm 0.0 W/m2
03:42 47.7 °F /  8.7 °C 31.8 °F /  -0.1 °C 30.28in /  1025.3hPa East 2.0mph /  3.2km/h 2.0mph /  3.2km/h 54% 0.00in /  0mm 0.0 W/m2
03:48 47.7 °F /  8.7 °C 31.8 °F /  -0.1 °C 30.28in /  1025.3hPa Calm   1.0mph /  1.6km/h 54% 0.00in /  0mm 0.0 W/m2
03:54 47.5 °F /  8.6 °C 32.2 °F /  0.1 °C 30.28in /  1025.3hPa Calm     55% 0.00in /  0mm 0.0 W/m2
04:00 47.3 °F /  8.5 °C 32.0 °F /  0 °C 30.28in /  1025.3hPa Calm     55% 0.00in /  0mm 0.0 W/m2
04:06 47.3 °F /  8.5 °C 32.0 °F /  0 °C 30.27in /  1024.9hPa Calm   1.0mph /  1.6km/h 55% 0.00in /  0mm 0.0 W/m2
04:12 47.1 °F /  8.4 °C 31.8 °F /  -0.1 °C 30.27in /  1024.9hPa Calm   1.0mph /  1.6km/h 55% 0.00in /  0mm 0.0 W/m2
04:18 46.9 °F /  8.3 °C 32.0 °F /  0 °C 30.27in /  1024.9hPa Calm   1.0mph /  1.6km/h 56% 0.00in /  0mm 0.0 W/m2
04:24 46.8 °F /  8.2 °C 31.8 °F /  -0.1 °C 30.27in /  1024.9hPa Calm     56% 0.00in /  0mm 0.0 W/m2
04:30 46.8 °F /  8.2 °C 31.8 °F /  -0.1 °C 30.27in /  1024.9hPa Calm   1.0mph /  1.6km/h 56% 0.00in /  0mm 0.0 W/m2
04:36 46.6 °F /  8.1 °C 31.6 °F /  -0.2 °C 30.27in /  1024.9hPa Calm     56% 0.00in /  0mm 0.0 W/m2
04:42 46.6 °F /  8.1 °C 32.2 °F /  0.1 °C 30.27in /  1024.9hPa Calm   1.0mph /  1.6km/h 57% 0.00in /  0mm 0.0 W/m2
04:48 46.6 °F /  8.1 °C 32.2 °F /  0.1 °C 30.27in /  1024.9hPa Calm   1.0mph /  1.6km/h 57% 0.00in /  0mm 0.0 W/m2
04:54 46.6 °F /  8.1 °C 32.2 °F /  0.1 °C 30.27in /  1024.9hPa Calm   1.0mph /  1.6km/h 57% 0.00in /  0mm 0.0 W/m2
05:00 46.6 °F /  8.1 °C 32.2 °F /  0.1 °C 30.27in /  1024.9hPa Calm     57% 0.00in /  0mm 0.0 W/m2
05:06 46.6 °F /  8.1 °C 32.2 °F /  0.1 °C 30.27in /  1024.9hPa Calm   2.0mph /  3.2km/h 57% 0.00in /  0mm 0.0 W/m2
05:12 46.4 °F /  8 °C 32.0 °F /  0 °C 30.27in /  1024.9hPa Calm   1.0mph /  1.6km/h 57% 0.00in /  0mm 0.0 W/m2
05:18 46.2 °F /  7.9 °C 31.8 °F /  -0.1 °C 30.28in /  1025.3hPa Calm   1.0mph /  1.6km/h 57% 0.00in /  0mm 0.0 W/m2
05:24 46.0 °F /  7.8 °C 32.0 °F /  0 °C 30.28in /  1025.3hPa Calm     58% 0.00in /  0mm 0.0 W/m2
05:31 46.0 °F /  7.8 °C 32.0 °F /  0 °C 30.28in /  1025.3hPa Calm     58% 0.00in /  0mm 0.0 W/m2
05:37 46.0 °F /  7.8 °C 32.0 °F /  0 °C 30.28in /  1025.3hPa Calm   1.0mph /  1.6km/h 58% 0.00in /  0mm 0.0 W/m2
05:43 46.0 °F /  7.8 °C 32.0 °F /  0 °C 30.28in /  1025.3hPa Calm     58% 0.00in /  0mm 0.0 W/m2
05:48 46.0 °F /  7.8 °C 32.5 °F /  0.3 °C 30.28in /  1025.3hPa Calm     59% 0.00in /  0mm 0.0 W/m2
05:55 46.0 °F /  7.8 °C 32.5 °F /  0.3 °C 30.29in /  1025.6hPa Calm     59% 0.00in /  0mm 0.0 W/m2
06:01 45.9 °F /  7.7 °C 32.0 °F /  0 °C 30.28in /  1025.3hPa Calm     58% 0.00in /  0mm 0.0 W/m2
06:07 45.7 °F /  7.6 °C 32.2 °F /  0.1 °C 30.29in /  1025.6hPa Calm   2.0mph /  3.2km/h 59% 0.00in /  0mm 0.0 W/m2
06:13 45.7 °F /  7.6 °C 32.2 °F /  0.1 °C 30.29in /  1025.6hPa Calm     59% 0.00in /  0mm 0.0 W/m2
06:19 45.3 °F /  7.4 °C 32.2 °F /  0.1 °C 30.29in /  1025.6hPa Calm   1.0mph /  1.6km/h 60% 0.00in /  0mm 0.0 W/m2
06:25 45.1 °F /  7.3 °C 32.0 °F /  0 °C 30.29in /  1025.6hPa NE 0.9mph /  1.4km/h 1.0mph /  1.6km/h 60% 0.00in /  0mm 0.0 W/m2
06:31 45.1 °F /  7.3 °C 32.0 °F /  0 °C 30.29in /  1025.6hPa Calm   4.0mph /  6.4km/h 60% 0.00in /  0mm 0.0 W/m2
06:37 45.1 °F /  7.3 °C 32.0 °F /  0 °C 30.29in /  1025.6hPa Calm     60% 0.00in /  0mm 5.0 W/m2
06:43 45.1 °F /  7.3 °C 32.5 °F /  0.3 °C 30.29in /  1025.6hPa Calm   1.0mph /  1.6km/h 61% 0.00in /  0mm 9.0 W/m2
06:49 45.0 °F /  7.2 °C 32.4 °F /  0.2 °C 30.29in /  1025.6hPa Calm     61% 0.00in /  0mm 12.0 W/m2
06:55 45.1 °F /  7.3 °C 32.5 °F /  0.3 °C 30.30in /  1026hPa Calm   1.0mph /  1.6km/h 61% 0.00in /  0mm 16.0 W/m2
06:57 45.1 °F /  7.3 °C 32.5 °F /  0.3 °C 30.29in /  1025.6hPa Calm   2.0mph /  3.2km/h 61% 0.00in /  0mm 16.0 W/m2
07:03 45.3 °F /  7.4 °C 32.2 °F /  0.1 °C 30.29in /  1025.6hPa Calm   2.0mph /  3.2km/h 60% 0.00in /  0mm 19.0 W/m2
07:09 45.7 °F /  7.6 °C 32.5 °F /  0.3 °C 30.30in /  1026hPa Calm     60% 0.00in /  0mm 23.0 W/m2
07:15 45.7 °F /  7.6 °C 32.5 °F /  0.3 °C 30.30in /  1026hPa Calm     60% 0.00in /  0mm 25.0 W/m2
07:21 45.9 °F /  7.7 °C 33.3 °F /  0.7 °C 30.30in /  1026hPa Calm     61% 0.00in /  0mm 28.0 W/m2
07:27 46.0 °F /  7.8 °C 32.9 °F /  0.5 °C 30.30in /  1026hPa Calm     60% 0.00in /  0mm 30.0 W/m2
07:33 46.4 °F /  8 °C 32.9 °F /  0.5 °C 30.30in /  1026hPa Calm     59% 0.00in /  0mm 33.0 W/m2
07:39 46.8 °F /  8.2 °C 33.6 °F /  0.9 °C 30.30in /  1026hPa ENE 0.9mph /  1.4km/h 1.0mph /  1.6km/h 60% 0.00in /  0mm 35.0 W/m2
07:45 47.1 °F /  8.4 °C 33.4 °F /  0.8 °C 30.30in /  1026hPa Calm   2.0mph /  3.2km/h 59% 0.00in /  0mm 37.0 W/m2
07:51 47.8 °F /  8.8 °C 33.8 °F /  1 °C 30.30in /  1026hPa Calm   2.0mph /  3.2km/h 58% 0.00in /  0mm 40.0 W/m2
07:57 48.9 °F /  9.4 °C 34.3 °F /  1.3 °C 30.31in /  1026.3hPa Calm   1.0mph /  1.6km/h 57% 0.00in /  0mm 42.0 W/m2
08:03 50.2 °F /  10.1 °C 35.1 °F /  1.7 °C 30.31in /  1026.3hPa Calm     56% 0.00in /  0mm 49.0 W/m2
08:09 51.6 °F /  10.9 °C 35.6 °F /  2 °C 30.31in /  1026.3hPa Calm     54% 0.00in /  0mm 243.0 W/m2
08:15 53.4 °F /  11.9 °C 36.3 °F /  2.4 °C 30.31in /  1026.3hPa Calm   1.0mph /  1.6km/h 52% 0.00in /  0mm 274.0 W/m2
08:21 55.6 °F /  13.1 °C 36.1 °F /  2.3 °C 30.31in /  1026.3hPa NE 0.9mph /  1.4km/h 2.0mph /  3.2km/h 48% 0.00in /  0mm 294.0 W/m2
08:27 57.7 °F /  14.3 °C 36.5 °F /  2.5 °C 30.31in /  1026.3hPa Calm     45% 0.00in /  0mm 313.0 W/m2
08:35 59.7 °F /  15.4 °C 36.0 °F /  2.2 °C 30.32in /  1026.6hPa Calm   2.0mph /  3.2km/h 41% 0.00in /  0mm 338.0 W/m2
08:41 61.2 °F /  16.2 °C 36.0 °F /  2.2 °C 30.32in /  1026.6hPa ENE 2.0mph /  3.2km/h 3.0mph /  4.8km/h 39% 0.00in /  0mm 355.0 W/m2
08:48 62.2 °F /  16.8 °C 36.3 °F /  2.4 °C 30.32in /  1026.6hPa Calm   1.0mph /  1.6km/h 38% 0.00in /  0mm 374.0 W/m2
08:54 63.3 °F /  17.4 °C 36.0 °F /  2.2 °C 30.32in /  1026.6hPa Calm     36% 0.00in /  0mm 392.0 W/m2
08:59 64.8 °F /  18.2 °C 36.5 °F /  2.5 °C 30.32in /  1026.6hPa NNW 0.9mph /  1.4km/h 1.0mph /  1.6km/h 35% 0.00in /  0mm 406.0 W/m2
09:06 65.8 °F /  18.8 °C 36.0 °F /  2.2 °C 30.31in /  1026.3hPa Calm   2.0mph /  3.2km/h 33% 0.00in /  0mm 424.0 W/m2
09:12 66.7 °F /  19.3 °C 36.0 °F /  2.2 °C 30.32in /  1026.6hPa Calm   1.0mph /  1.6km/h 32% 0.00in /  0mm 439.0 W/m2
09:18 67.3 °F /  19.6 °C 36.5 °F /  2.5 °C 30.31in /  1026.3hPa Calm   2.0mph /  3.2km/h 32% 0.00in /  0mm 457.0 W/m2
09:26 68.4 °F /  20.2 °C 36.5 °F /  2.5 °C 30.32in /  1026.6hPa Calm   1.0mph /  1.6km/h 31% 0.00in /  0mm 476.0 W/m2
09:32 69.1 °F /  20.6 °C 36.3 °F /  2.4 °C 30.32in /  1026.6hPa Calm   2.0mph /  3.2km/h 30% 0.00in /  0mm 489.0 W/m2
09:38 69.4 °F /  20.8 °C 35.8 °F /  2.1 °C 30.31in /  1026.3hPa North 2.0mph /  3.2km/h 4.0mph /  6.4km/h 29% 0.00in /  0mm 504.0 W/m2
09:44 69.6 °F /  20.9 °C 36.0 °F /  2.2 °C 30.31in /  1026.3hPa Calm   5.0mph /  8km/h 29% 0.00in /  0mm 515.0 W/m2
09:50 69.6 °F /  20.9 °C 36.0 °F /  2.2 °C 30.31in /  1026.3hPa North 2.0mph /  3.2km/h 3.0mph /  4.8km/h 29% 0.00in /  0mm 527.0 W/m2
09:56 69.6 °F /  20.9 °C 36.9 °F /  2.7 °C 30.31in /  1026.3hPa NNW 0.9mph /  1.4km/h 2.0mph /  3.2km/h 30% 0.00in /  0mm 541.0 W/m2
10:02 70.0 °F /  21.1 °C 36.3 °F /  2.4 °C 30.31in /  1026.3hPa NW 0.9mph /  1.4km/h 3.0mph /  4.8km/h 29% 0.00in /  0mm 552.0 W/m2
10:08 70.2 °F /  21.2 °C 36.5 °F /  2.5 °C 30.31in /  1026.3hPa NW 2.0mph /  3.2km/h 5.0mph /  8km/h 29% 0.00in /  0mm 566.0 W/m2
10:15 70.3 °F /  21.3 °C 36.5 °F /  2.5 °C 30.30in /  1026hPa NNW 4.0mph /  6.4km/h 4.0mph /  6.4km/h 29% 0.00in /  0mm 573.0 W/m2
10:21 70.9 °F /  21.6 °C 37.0 °F /  2.8 °C 30.30in /  1026hPa NNW 0.9mph /  1.4km/h 5.0mph /  8km/h 29% 0.00in /  0mm 589.0 W/m2
10:27 71.1 °F /  21.7 °C 36.3 °F /  2.4 °C 30.30in /  1026hPa NNW 2.0mph /  3.2km/h 7.0mph /  11.3km/h 28% 0.00in /  0mm 598.0 W/m2
10:33 71.1 °F /  21.7 °C 37.2 °F /  2.9 °C 30.30in /  1026hPa Calm   4.0mph /  6.4km/h 29% 0.00in /  0mm 606.0 W/m2
10:39 71.4 °F /  21.9 °C 36.7 °F /  2.6 °C 30.30in /  1026hPa WNW 2.9mph /  4.7km/h 7.0mph /  11.3km/h 28% 0.00in /  0mm 612.0 W/m2
10:45 71.6 °F /  22 °C 36.7 °F /  2.6 °C 30.29in /  1025.6hPa Calm   6.0mph /  9.7km/h 28% 0.00in /  0mm 619.0 W/m2
10:51 71.8 °F /  22.1 °C 36.9 °F /  2.7 °C 30.29in /  1025.6hPa NNW 8.9mph /  14.3km/h 10.0mph /  16.1km/h 28% 0.00in /  0mm 624.0 W/m2
10:58 71.8 °F /  22.1 °C 36.9 °F /  2.7 °C 30.29in /  1025.6hPa Calm   3.0mph /  4.8km/h 28% 0.00in /  0mm 629.0 W/m2
11:04 72.1 °F /  22.3 °C 37.2 °F /  2.9 °C 30.28in /  1025.3hPa WNW 4.9mph /  7.9km/h 7.0mph /  11.3km/h 28% 0.00in /  0mm 643.0 W/m2
11:10 72.3 °F /  22.4 °C 36.5 °F /  2.5 °C 30.28in /  1025.3hPa NE 6.0mph /  9.7km/h 11.0mph /  17.7km/h 27% 0.00in /  0mm 645.0 W/m2
11:16 72.5 °F /  22.5 °C 36.7 °F /  2.6 °C 30.28in /  1025.3hPa NW 4.0mph /  6.4km/h 9.0mph /  14.5km/h 27% 0.00in /  0mm 645.0 W/m2
11:22 72.7 °F /  22.6 °C 36.9 °F /  2.7 °C 30.27in /  1024.9hPa NNW 0.9mph /  1.4km/h 11.0mph /  17.7km/h 27% 0.00in /  0mm 661.0 W/m2
11:28 72.9 °F /  22.7 °C 36.0 °F /  2.2 °C 30.27in /  1024.9hPa West 0.9mph /  1.4km/h 7.0mph /  11.3km/h 26% 0.00in /  0mm 642.0 W/m2
11:34 73.0 °F /  22.8 °C 35.1 °F /  1.7 °C 30.27in /  1024.9hPa WSW 0.9mph /  1.4km/h 6.0mph /  9.7km/h 25% 0.00in /  0mm 652.0 W/m2
11:40 73.2 °F /  22.9 °C 35.2 °F /  1.8 °C 30.26in /  1024.6hPa Calm   8.0mph /  12.9km/h 25% 0.00in /  0mm 654.0 W/m2
11:47 73.6 °F /  23.1 °C 35.6 °F /  2 °C 30.26in /  1024.6hPa WNW 0.9mph /  1.4km/h 6.0mph /  9.7km/h 25% 0.00in /  0mm 654.0 W/m2
11:53 73.8 °F /  23.2 °C 35.8 °F /  2.1 °C 30.26in /  1024.6hPa Calm   4.0mph /  6.4km/h 25% 0.00in /  0mm 645.0 W/m2
11:59 73.8 °F /  23.2 °C 35.8 °F /  2.1 °C 30.25in /  1024.3hPa WNW 2.9mph /  4.7km/h 5.0mph /  8km/h 25% 0.00in /  0mm 664.0 W/m2
12:05 73.8 °F /  23.2 °C 35.8 °F /  2.1 °C 30.25in /  1024.3hPa Calm   8.0mph /  12.9km/h 25% 0.00in /  0mm 656.0 W/m2
12:11 73.9 °F /  23.3 °C 36.0 °F /  2.2 °C 30.25in /  1024.3hPa West 2.0mph /  3.2km/h 10.0mph /  16.1km/h 25% 0.00in /  0mm 652.0 W/m2
12:17 74.1 °F /  23.4 °C 36.0 °F /  2.2 °C 30.24in /  1023.9hPa NNW 4.0mph /  6.4km/h 10.0mph /  16.1km/h 25% 0.00in /  0mm 649.0 W/m2
12:23 74.1 °F /  23.4 °C 36.0 °F /  2.2 °C 30.24in /  1023.9hPa NW 0.9mph /  1.4km/h 6.0mph /  9.7km/h 25% 0.00in /  0mm 633.0 W/m2
12:29 73.9 °F /  23.3 °C 36.0 °F /  2.2 °C 30.24in /  1023.9hPa WNW 2.9mph /  4.7km/h 7.0mph /  11.3km/h 25% 0.00in /  0mm 656.0 W/m2
12:35 74.1 °F /  23.4 °C 36.0 °F /  2.2 °C 30.24in /  1023.9hPa Calm   10.0mph /  16.1km/h 25% 0.00in /  0mm 626.0 W/m2
12:41 74.3 °F /  23.5 °C 36.1 °F /  2.3 °C 30.23in /  1023.6hPa NW 2.9mph /  4.7km/h 9.0mph /  14.5km/h 25% 0.00in /  0mm 633.0 W/m2
12:48 74.1 °F /  23.4 °C 35.1 °F /  1.7 °C 30.23in /  1023.6hPa North 8.1mph /  13km/h 8.1mph /  13km/h 24% 0.00in /  0mm 624.0 W/m2
12:54 74.3 °F /  23.5 °C 35.2 °F /  1.8 °C 30.23in /  1023.6hPa NNW 10.1mph /  16.3km/h 11.0mph /  17.7km/h 24% 0.00in /  0mm 624.0 W/m2
13:00 74.7 °F /  23.7 °C 35.4 °F /  1.9 °C 30.23in /  1023.6hPa Calm   5.0mph /  8km/h 24% 0.00in /  0mm 605.0 W/m2
13:06 74.8 °F /  23.8 °C 35.6 °F /  2 °C 30.23in /  1023.6hPa SW 2.0mph /  3.2km/h 10.0mph /  16.1km/h 24% 0.00in /  0mm 613.0 W/m2
13:12 74.7 °F /  23.7 °C 35.4 °F /  1.9 °C 30.22in /  1023.2hPa SW 2.0mph /  3.2km/h 4.0mph /  6.4km/h 24% 0.00in /  0mm 605.0 W/m2
13:18 74.7 °F /  23.7 °C 34.3 °F /  1.3 °C 30.22in /  1023.2hPa NW 6.0mph /  9.7km/h 9.0mph /  14.5km/h 23% 0.00in /  0mm 608.0 W/m2
13:24 74.7 °F /  23.7 °C 34.3 °F /  1.3 °C 30.22in /  1023.2hPa NW 2.9mph /  4.7km/h 10.0mph /  16.1km/h 23% 0.00in /  0mm 584.0 W/m2
13:30 74.7 °F /  23.7 °C 35.4 °F /  1.9 °C 30.21in /  1022.9hPa NW 4.9mph /  7.9km/h 9.0mph /  14.5km/h 24% 0.00in /  0mm 582.0 W/m2
13:37 74.7 °F /  23.7 °C 34.3 °F /  1.3 °C 30.21in /  1022.9hPa NNW 6.0mph /  9.7km/h 13.0mph /  20.9km/h 23% 0.00in /  0mm 561.0 W/m2
13:43 74.8 °F /  23.8 °C 34.5 °F /  1.4 °C 30.20in /  1022.6hPa NW 2.0mph /  3.2km/h 5.0mph /  8km/h 23% 0.00in /  0mm 547.0 W/m2
13:49 74.8 °F /  23.8 °C 34.5 °F /  1.4 °C 30.20in /  1022.6hPa West 0.9mph /  1.4km/h 7.0mph /  11.3km/h 23% 0.00in /  0mm 543.0 W/m2
13:55 74.7 °F /  23.7 °C 33.3 °F /  0.7 °C 30.20in /  1022.6hPa North 8.1mph /  13km/h 13.0mph /  20.9km/h 22% 0.00in /  0mm 529.0 W/m2
14:01 74.5 °F /  23.6 °C 34.3 °F /  1.3 °C 30.20in /  1022.6hPa Calm   4.0mph /  6.4km/h 23% 0.00in /  0mm 519.0 W/m2
14:07 74.7 °F /  23.7 °C 34.3 °F /  1.3 °C 30.20in /  1022.6hPa Calm   3.0mph /  4.8km/h 23% 0.00in /  0mm 492.0 W/m2
14:14 74.7 °F /  23.7 °C 34.3 °F /  1.3 °C 30.20in /  1022.6hPa Calm   5.0mph /  8km/h 23% 0.00in /  0mm 487.0 W/m2
14:20 74.7 °F /  23.7 °C 35.4 °F /  1.9 °C 30.20in /  1022.6hPa WNW 0.9mph /  1.4km/h 8.0mph /  12.9km/h 24% 0.00in /  0mm 476.0 W/m2
14:26 74.8 °F /  23.8 °C 34.5 °F /  1.4 °C 30.19in /  1022.2hPa West 4.9mph /  7.9km/h 11.0mph /  17.7km/h 23% 0.00in /  0mm 457.0 W/m2
14:32 75.0 °F /  23.9 °C 33.6 °F /  0.9 °C 30.19in /  1022.2hPa NW 2.9mph /  4.7km/h 6.0mph /  9.7km/h 22% 0.00in /  0mm 445.0 W/m2
14:38 75.2 °F /  24 °C 34.9 °F /  1.6 °C 30.19in /  1022.2hPa WSW 2.0mph /  3.2km/h 7.0mph /  11.3km/h 23% 0.00in /  0mm 418.0 W/m2
14:44 75.4 °F /  24.1 °C 35.1 °F /  1.7 °C 30.19in /  1022.2hPa West 4.9mph /  7.9km/h 11.0mph /  17.7km/h 23% 0.00in /  0mm 413.0 W/m2
14:50 75.0 °F /  23.9 °C 34.7 °F /  1.5 °C 30.19in /  1022.2hPa WNW 2.9mph /  4.7km/h 9.0mph /  14.5km/h 23% 0.00in /  0mm 394.0 W/m2
14:56 74.8 °F /  23.8 °C 34.5 °F /  1.4 °C 30.19in /  1022.2hPa WSW 2.0mph /  3.2km/h 10.0mph /  16.1km/h 23% 0.00in /  0mm 376.0 W/m2
15:03 74.8 °F /  23.8 °C 34.5 °F /  1.4 °C 30.19in /  1022.2hPa WNW 2.9mph /  4.7km/h 4.0mph /  6.4km/h 23% 0.00in /  0mm 353.0 W/m2
15:09 74.7 °F /  23.7 °C 34.3 °F /  1.3 °C 30.19in /  1022.2hPa West 0.9mph /  1.4km/h 7.0mph /  11.3km/h 23% 0.00in /  0mm 339.0 W/m2
15:15 74.5 °F /  23.6 °C 34.3 °F /  1.3 °C 30.19in /  1022.2hPa NW 0.9mph /  1.4km/h 8.0mph /  12.9km/h 23% 0.00in /  0mm 323.0 W/m2
15:21 74.3 °F /  23.5 °C 35.2 °F /  1.8 °C 30.19in /  1022.2hPa Calm   4.0mph /  6.4km/h 24% 0.00in /  0mm 304.0 W/m2
15:27 74.1 °F /  23.4 °C 34.0 °F /  1.1 °C 30.19in /  1022.2hPa Calm   6.0mph /  9.7km/h 23% 0.00in /  0mm 281.0 W/m2
15:33 73.9 °F /  23.3 °C 34.9 °F /  1.6 °C 30.18in /  1021.9hPa Calm   4.0mph /  6.4km/h 24% 0.00in /  0mm 65.0 W/m2
15:39 73.8 °F /  23.2 °C 33.6 °F /  0.9 °C 30.19in /  1022.2hPa WSW 4.9mph /  7.9km/h 6.0mph /  9.7km/h 23% 0.00in /  0mm 60.0 W/m2
15:45 73.8 °F /  23.2 °C 33.6 °F /  0.9 °C 30.19in /  1022.2hPa WNW 4.9mph /  7.9km/h 6.0mph /  9.7km/h 23% 0.00in /  0mm 56.0 W/m2
15:52 73.4 °F /  23 °C 33.3 °F /  0.7 °C 30.19in /  1022.2hPa Calm   5.0mph /  8km/h 23% 0.00in /  0mm 54.0 W/m2
15:58 73.0 °F /  22.8 °C 33.1 °F /  0.6 °C 30.19in /  1022.2hPa NW 4.9mph /  7.9km/h 7.0mph /  11.3km/h 23% 0.00in /  0mm 51.0 W/m2
16:04 72.9 °F /  22.7 °C 32.9 °F /  0.5 °C 30.19in /  1022.2hPa NW 2.0mph /  3.2km/h 7.0mph /  11.3km/h 23% 0.00in /  0mm 47.0 W/m2
16:10 72.5 °F /  22.5 °C 33.6 °F /  0.9 °C 30.19in /  1022.2hPa Calm   1.0mph /  1.6km/h 24% 0.00in /  0mm 44.0 W/m2
16:16 72.1 °F /  22.3 °C 33.4 °F /  0.8 °C 30.19in /  1022.2hPa NNW 4.9mph /  7.9km/h 7.0mph /  11.3km/h 24% 0.00in /  0mm 39.0 W/m2
16:22 72.0 °F /  22.2 °C 34.2 °F /  1.2 °C 30.19in /  1022.2hPa West 6.0mph /  9.7km/h 10.0mph /  16.1km/h 25% 0.00in /  0mm 35.0 W/m2
16:28 71.6 °F /  22 °C 34.0 °F /  1.1 °C 30.20in /  1022.6hPa West 2.0mph /  3.2km/h 3.0mph /  4.8km/h 25% 0.00in /  0mm 33.0 W/m2
16:35 71.4 °F /  21.9 °C 33.8 °F /  1 °C 30.20in /  1022.6hPa Calm   2.0mph /  3.2km/h 25% 0.00in /  0mm 30.0 W/m2
16:41 71.1 °F /  21.7 °C 33.4 °F /  0.8 °C 30.20in /  1022.6hPa Calm   4.0mph /  6.4km/h 25% 0.00in /  0mm 26.0 W/m2
16:47 70.7 °F /  21.5 °C 33.1 °F /  0.6 °C 30.20in /  1022.6hPa Calm   4.0mph /  6.4km/h 25% 0.00in /  0mm 25.0 W/m2
16:53 70.3 °F /  21.3 °C 32.9 °F /  0.5 °C 30.20in /  1022.6hPa NW 2.9mph /  4.7km/h 9.0mph /  14.5km/h 25% 0.00in /  0mm 21.0 W/m2
16:59 70.2 °F /  21.2 °C 32.7 °F /  0.4 °C 30.20in /  1022.6hPa WSW 0.9mph /  1.4km/h 3.0mph /  4.8km/h 25% 0.00in /  0mm 18.0 W/m2
17:05 69.8 °F /  21 °C 33.4 °F /  0.8 °C 30.21in /  1022.9hPa Calm   1.0mph /  1.6km/h 26% 0.00in /  0mm 12.0 W/m2
17:12 69.4 °F /  20.8 °C 33.1 °F /  0.6 °C 30.21in /  1022.9hPa Calm     26% 0.00in /  0mm 9.0 W/m2
17:18 68.7 °F /  20.4 °C 33.4 °F /  0.8 °C 30.21in /  1022.9hPa Calm     27% 0.00in /  0mm 5.0 W/m2
17:24 68.2 °F /  20.1 °C 33.8 °F /  1 °C 30.21in /  1022.9hPa Calm     28% 0.00in /  0mm 0.0 W/m2
17:30 67.5 °F /  19.7 °C 34.2 °F /  1.2 °C 30.21in /  1022.9hPa Calm     29% 0.00in /  0mm 0.0 W/m2
17:36 66.7 °F /  19.3 °C 33.4 °F /  0.8 °C 30.22in /  1023.2hPa Calm     29% 0.00in /  0mm 0.0 W/m2
17:42 66.0 °F /  18.9 °C 33.6 °F /  0.9 °C 30.22in /  1023.2hPa Calm     30% 0.00in /  0mm 0.0 W/m2
17:48 65.1 °F /  18.4 °C 33.8 °F /  1 °C 30.22in /  1023.2hPa Calm     31% 0.00in /  0mm 0.0 W/m2
17:55 64.6 °F /  18.1 °C 34.0 °F /  1.1 °C 30.22in /  1023.2hPa Calm     32% 0.00in /  0mm 0.0 W/m2
18:01 63.9 °F /  17.7 °C 33.4 °F /  0.8 °C 30.23in /  1023.6hPa Calm     32% 0.00in /  0mm 0.0 W/m2
18:07 63.0 °F /  17.2 °C 33.4 °F /  0.8 °C 30.23in /  1023.6hPa Calm     33% 0.00in /  0mm 0.0 W/m2
18:13 62.1 °F /  16.7 °C 33.4 °F /  0.8 °C 30.23in /  1023.6hPa Calm     34% 0.00in /  0mm 0.0 W/m2
18:19 61.2 °F /  16.2 °C 32.5 °F /  0.3 °C 30.23in /  1023.6hPa Calm     34% 0.00in /  0mm 0.0 W/m2
18:25 60.4 °F /  15.8 °C 32.7 °F /  0.4 °C 30.23in /  1023.6hPa Calm     35% 0.00in /  0mm 0.0 W/m2
18:31 60.1 °F /  15.6 °C 33.1 °F /  0.6 °C 30.23in /  1023.6hPa Calm     36% 0.00in /  0mm 0.0 W/m2
18:38 59.4 °F /  15.2 °C 33.1 °F /  0.6 °C 30.23in /  1023.6hPa Calm     37% 0.00in /  0mm 0.0 W/m2
18:44 58.6 °F /  14.8 °C 33.1 °F /  0.6 °C 30.23in /  1023.6hPa Calm     38% 0.00in /  0mm 0.0 W/m2
18:50 58.3 °F /  14.6 °C 32.7 °F /  0.4 °C 30.24in /  1023.9hPa Calm     38% 0.00in /  0mm 0.0 W/m2
18:56 57.6 °F /  14.2 °C 32.7 °F /  0.4 °C 30.24in /  1023.9hPa Calm     39% 0.00in /  0mm 0.0 W/m2
19:02 57.2 °F /  14 °C 33.1 °F /  0.6 °C 30.25in /  1024.3hPa Calm     40% 0.00in /  0mm 0.0 W/m2
19:08 56.7 °F /  13.7 °C 32.5 °F /  0.3 °C 30.25in /  1024.3hPa Calm     40% 0.00in /  0mm 0.0 W/m2
19:14 56.1 °F /  13.4 °C 32.2 °F /  0.1 °C 30.25in /  1024.3hPa Calm     40% 0.00in /  0mm 0.0 W/m2
19:20 56.1 °F /  13.4 °C 32.7 °F /  0.4 °C 30.26in /  1024.6hPa Calm     41% 0.00in /  0mm 0.0 W/m2
19:27 55.9 °F /  13.3 °C 32.0 °F /  0 °C 30.26in /  1024.6hPa Calm     40% 0.00in /  0mm 0.0 W/m2
19:33 55.9 °F /  13.3 °C 32.0 °F /  0 °C 30.26in /  1024.6hPa Calm   1.0mph /  1.6km/h 40% 0.00in /  0mm 0.0 W/m2
19:39 55.8 °F /  13.2 °C 32.4 °F /  0.2 °C 30.26in /  1024.6hPa Calm     41% 0.00in /  0mm 0.0 W/m2
19:45 55.8 °F /  13.2 °C 32.4 °F /  0.2 °C 30.26in /  1024.6hPa Calm     41% 0.00in /  0mm 0.0 W/m2
19:51 55.6 °F /  13.1 °C 32.2 °F /  0.1 °C 30.27in /  1024.9hPa Calm     41% 0.00in /  0mm 0.0 W/m2
19:57 55.0 °F /  12.8 °C 31.8 °F /  -0.1 °C 30.27in /  1024.9hPa Calm     41% 0.00in /  0mm 0.0 W/m2
20:04 55.0 °F /  12.8 °C 31.8 °F /  -0.1 °C 30.27in /  1024.9hPa Calm   3.0mph /  4.8km/h 41% 0.00in /  0mm 0.0 W/m2
20:10 54.9 °F /  12.7 °C 31.6 °F /  -0.2 °C 30.28in /  1025.3hPa Calm   2.0mph /  3.2km/h 41% 0.00in /  0mm 0.0 W/m2
20:16 54.7 °F /  12.6 °C 31.5 °F /  -0.3 °C 30.28in /  1025.3hPa Calm   2.0mph /  3.2km/h 41% 0.00in /  0mm 0.0 W/m2
20:22 54.7 °F /  12.6 °C 32.0 °F /  0 °C 30.28in /  1025.3hPa Calm     42% 0.00in /  0mm 0.0 W/m2
20:28 54.5 °F /  12.5 °C 31.8 °F /  -0.1 °C 30.28in /  1025.3hPa Calm     42% 0.00in /  0mm 0.0 W/m2
20:34 54.1 °F /  12.3 °C 31.5 °F /  -0.3 °C 30.29in /  1025.6hPa Calm     42% 0.00in /  0mm 0.0 W/m2
20:40 54.0 °F /  12.2 °C 32.0 °F /  0 °C 30.29in /  1025.6hPa Calm     43% 0.00in /  0mm 0.0 W/m2
20:47 54.0 °F /  12.2 °C 32.0 °F /  0 °C 30.29in /  1025.6hPa Calm   1.0mph /  1.6km/h 43% 0.00in /  0mm 0.0 W/m2
20:53 54.0 °F /  12.2 °C 32.0 °F /  0 °C 30.29in /  1025.6hPa Calm     43% 0.00in /  0mm 0.0 W/m2
20:59 53.8 °F /  12.1 °C 31.8 °F /  -0.1 °C 30.29in /  1025.6hPa Calm   3.0mph /  4.8km/h 43% 0.00in /  0mm 0.0 W/m2
21:05 53.8 °F /  12.1 °C 31.8 °F /  -0.1 °C 30.29in /  1025.6hPa Calm   1.0mph /  1.6km/h 43% 0.00in /  0mm 0.0 W/m2
21:11 53.6 °F /  12 °C 31.6 °F /  -0.2 °C 30.30in /  1026hPa Calm     43% 0.00in /  0mm 0.0 W/m2
21:17 53.6 °F /  12 °C 31.6 °F /  -0.2 °C 30.30in /  1026hPa Calm   3.0mph /  4.8km/h 43% 0.00in /  0mm 0.0 W/m2
21:23 53.4 °F /  11.9 °C 31.5 °F /  -0.3 °C 30.30in /  1026hPa Calm   1.0mph /  1.6km/h 43% 0.00in /  0mm 0.0 W/m2
21:29 53.2 °F /  11.8 °C 31.3 °F /  -0.4 °C 30.30in /  1026hPa Calm     43% 0.00in /  0mm 0.0 W/m2
21:36 53.1 °F /  11.7 °C 31.6 °F /  -0.2 °C 30.30in /  1026hPa Calm     44% 0.00in /  0mm 0.0 W/m2
21:42 53.1 °F /  11.7 °C 31.6 °F /  -0.2 °C 30.30in /  1026hPa Calm   1.0mph /  1.6km/h 44% 0.00in /  0mm 0.0 W/m2
21:48 52.9 °F /  11.6 °C 31.6 °F /  -0.2 °C 30.30in /  1026hPa Calm   2.0mph /  3.2km/h 44% 0.00in /  0mm 0.0 W/m2
21:54 52.7 °F /  11.5 °C 31.5 °F /  -0.3 °C 30.31in /  1026.3hPa Calm   1.0mph /  1.6km/h 44% 0.00in /  0mm 0.0 W/m2
22:00 52.5 °F /  11.4 °C 31.3 °F /  -0.4 °C 30.31in /  1026.3hPa Calm   1.0mph /  1.6km/h 44% 0.00in /  0mm 0.0 W/m2
22:06 52.3 °F /  11.3 °C 31.1 °F /  -0.5 °C 30.30in /  1026hPa Calm   1.0mph /  1.6km/h 44% 0.00in /  0mm 0.0 W/m2
22:13 52.2 °F /  11.2 °C 30.9 °F /  -0.6 °C 30.31in /  1026.3hPa Calm   2.0mph /  3.2km/h 44% 0.00in /  0mm 0.0 W/m2
22:19 52.0 °F /  11.1 °C 30.7 °F /  -0.7 °C 30.31in /  1026.3hPa Calm     44% 0.00in /  0mm 0.0 W/m2
22:25 51.8 °F /  11 °C 31.1 °F /  -0.5 °C 30.31in /  1026.3hPa Calm   1.0mph /  1.6km/h 45% 0.00in /  0mm 0.0 W/m2
22:31 51.6 °F /  10.9 °C 30.9 °F /  -0.6 °C 30.31in /  1026.3hPa Calm     45% 0.00in /  0mm 0.0 W/m2
22:37 51.6 °F /  10.9 °C 30.9 °F /  -0.6 °C 30.31in /  1026.3hPa Calm     45% 0.00in /  0mm 0.0 W/m2
22:43 51.6 °F /  10.9 °C 30.9 °F /  -0.6 °C 30.31in /  1026.3hPa Calm   1.0mph /  1.6km/h 45% 0.00in /  0mm 0.0 W/m2
22:49 51.6 °F /  10.9 °C 30.9 °F /  -0.6 °C 30.31in /  1026.3hPa Calm     45% 0.00in /  0mm 0.0 W/m2
22:55 51.4 °F /  10.8 °C 30.7 °F /  -0.7 °C 30.31in /  1026.3hPa Calm   2.0mph /  3.2km/h 45% 0.00in /  0mm 0.0 W/m2
23:01 51.4 °F /  10.8 °C 30.7 °F /  -0.7 °C 30.31in /  1026.3hPa Calm   1.0mph /  1.6km/h 45% 0.00in /  0mm 0.0 W/m2
23:08 51.4 °F /  10.8 °C 30.2 °F /  -1 °C 30.31in /  1026.3hPa Calm   1.0mph /  1.6km/h 44% 0.00in /  0mm 0.0 W/m2
23:14 51.3 °F /  10.7 °C 30.6 °F /  -0.8 °C 30.31in /  1026.3hPa Calm     45% 0.00in /  0mm 0.0 W/m2
23:22 51.3 °F /  10.7 °C 30.0 °F /  -1.1 °C 30.31in /  1026.3hPa Calm     44% 0.00in /  0mm 0.0 W/m2
23:28 51.3 °F /  10.7 °C 30.6 °F /  -0.8 °C 30.31in /  1026.3hPa Calm   2.0mph /  3.2km/h 45% 0.00in /  0mm 0.0 W/m2
23:34 51.1 °F /  10.6 °C 29.8 °F /  -1.2 °C 30.31in /  1026.3hPa Calm   4.0mph /  6.4km/h 44% 0.00in /  0mm 0.0 W/m2
23:40 51.1 °F /  10.6 °C 29.8 °F /  -1.2 °C 30.30in /  1026hPa Calm     44% 0.00in /  0mm 0.0 W/m2
23:46 50.7 °F /  10.4 °C 30.2 °F /  -1 °C 30.31in /  1026.3hPa Calm     45% 0.00in /  0mm 0.0 W/m2
23:52 50.5 °F /  10.3 °C 29.5 °F /  -1.4 °C 30.31in /  1026.3hPa Calm   1.0mph /  1.6km/h 44% 0.00in /  0mm 0.0 W/m2
23:58 50.5 °F /  10.3 °C 29.5 °F /  -1.4 °C 30.31in /  1026.3hPa Calm   2.0mph /  3.2km/h 44% 0.00in /  0mm 0.0 W/m2
Olympia, Windhoek, Namibia
Compliments of Weather Underground - 3 mb